sensor_id;sensor_type;location;lat;lon;timestamp;temperature;humidity
71291;DHT22;59073;51.994;4.448;2022-07-22T00:01:49;19.06;71.24
71291;DHT22;59073;51.994;4.448;2022-07-22T00:04:14;19.12;70.98
71291;DHT22;59073;51.994;4.448;2022-07-22T00:06:40;19.15;70.03
71291;DHT22;59073;51.994;4.448;2022-07-22T00:09:05;19.13;70.48
71291;DHT22;59073;51.994;4.448;2022-07-22T00:11:31;19.06;70.81
71291;DHT22;59073;51.994;4.448;2022-07-22T00:13:56;18.95;70.94
71291;DHT22;59073;51.994;4.448;2022-07-22T00:16:21;18.85;70.90
71291;DHT22;59073;51.994;4.448;2022-07-22T00:18:47;18.89;71.72
71291;DHT22;59073;51.994;4.448;2022-07-22T00:21:12;18.88;71.39
71291;DHT22;59073;51.994;4.448;2022-07-22T00:23:38;18.89;71.35
71291;DHT22;59073;51.994;4.448;2022-07-22T00:26:03;18.92;71.37
71291;DHT22;59073;51.994;4.448;2022-07-22T00:28:29;18.92;71.52
71291;DHT22;59073;51.994;4.448;2022-07-22T00:30:55;18.96;71.43
71291;DHT22;59073;51.994;4.448;2022-07-22T00:33:22;18.94;71.27
71291;DHT22;59073;51.994;4.448;2022-07-22T00:35:47;18.89;71.55
71291;DHT22;59073;51.994;4.448;2022-07-22T00:38:13;18.85;71.10
71291;DHT22;59073;51.994;4.448;2022-07-22T00:40:38;18.79;70.69
71291;DHT22;59073;51.994;4.448;2022-07-22T00:43:04;18.64;71.25
71291;DHT22;59073;51.994;4.448;2022-07-22T00:45:29;18.54;71.18
71291;DHT22;59073;51.994;4.448;2022-07-22T00:47:54;18.58;71.53
71291;DHT22;59073;51.994;4.448;2022-07-22T00:50:20;18.65;71.43
71291;DHT22;59073;51.994;4.448;2022-07-22T00:52:47;18.64;70.86
71291;DHT22;59073;51.994;4.448;2022-07-22T00:55:12;18.60;70.85
71291;DHT22;59073;51.994;4.448;2022-07-22T00:57:38;18.60;70.16
71291;DHT22;59073;51.994;4.448;2022-07-22T01:00:09;18.55;69.50
71291;DHT22;59073;51.994;4.448;2022-07-22T01:02:34;18.51;70.51
71291;DHT22;59073;51.994;4.448;2022-07-22T01:05:00;18.48;69.59
71291;DHT22;59073;51.994;4.448;2022-07-22T01:07:25;18.44;70.00
71291;DHT22;59073;51.994;4.448;2022-07-22T01:09:51;18.55;70.71
71291;DHT22;59073;51.994;4.448;2022-07-22T01:12:16;18.55;69.51
71291;DHT22;59073;51.994;4.448;2022-07-22T01:14:42;18.57;70.15
71291;DHT22;59073;51.994;4.448;2022-07-22T01:17:08;18.62;69.94
71291;DHT22;59073;51.994;4.448;2022-07-22T01:19:36;18.48;69.48
71291;DHT22;59073;51.994;4.448;2022-07-22T01:22:02;18.45;70.50
71291;DHT22;59073;51.994;4.448;2022-07-22T01:24:28;18.41;70.08
71291;DHT22;59073;51.994;4.448;2022-07-22T01:26:53;18.44;69.86
71291;DHT22;59073;51.994;4.448;2022-07-22T01:29:18;18.54;69.43
71291;DHT22;59073;51.994;4.448;2022-07-22T01:31:44;18.69;69.82
71291;DHT22;59073;51.994;4.448;2022-07-22T01:34:09;18.75;68.60
71291;DHT22;59073;51.994;4.448;2022-07-22T01:36:35;18.79;68.40
71291;DHT22;59073;51.994;4.448;2022-07-22T01:39:00;18.79;69.13
71291;DHT22;59073;51.994;4.448;2022-07-22T01:41:26;18.87;69.42
71291;DHT22;59073;51.994;4.448;2022-07-22T01:43:51;19.01;69.05
71291;DHT22;59073;51.994;4.448;2022-07-22T01:46:17;19.09;69.30
71291;DHT22;59073;51.994;4.448;2022-07-22T01:48:43;19.12;68.19
71291;DHT22;59073;51.994;4.448;2022-07-22T01:51:09;19.12;68.31
71291;DHT22;59073;51.994;4.448;2022-07-22T01:53:34;19.03;67.45
71291;DHT22;59073;51.994;4.448;2022-07-22T01:56:00;19.03;67.84
71291;DHT22;59073;51.994;4.448;2022-07-22T01:58:25;18.92;68.05
71291;DHT22;59073;51.994;4.448;2022-07-22T02:00:51;18.96;68.44
71291;DHT22;59073;51.994;4.448;2022-07-22T02:03:17;19.02;69.29
71291;DHT22;59073;51.994;4.448;2022-07-22T02:05:43;19.05;68.45
71291;DHT22;59073;51.994;4.448;2022-07-22T02:08:10;19.06;68.20
71291;DHT22;59073;51.994;4.448;2022-07-22T02:10:36;19.05;67.95
71291;DHT22;59073;51.994;4.448;2022-07-22T02:13:03;19.03;68.08
71291;DHT22;59073;51.994;4.448;2022-07-22T02:15:29;19.06;68.36
71291;DHT22;59073;51.994;4.448;2022-07-22T02:17:55;19.11;67.25
71291;DHT22;59073;51.994;4.448;2022-07-22T02:20:21;19.13;69.44
71291;DHT22;59073;51.994;4.448;2022-07-22T02:22:46;19.15;68.32
71291;DHT22;59073;51.994;4.448;2022-07-22T02:25:12;19.11;68.01
71291;DHT22;59073;51.994;4.448;2022-07-22T02:27:38;18.84;67.90
71291;DHT22;59073;51.994;4.448;2022-07-22T02:30:05;18.68;68.40
71291;DHT22;59073;51.994;4.448;2022-07-22T02:32:31;18.64;68.57
71291;DHT22;59073;51.994;4.448;2022-07-22T02:34:57;18.58;68.69
71291;DHT22;59073;51.994;4.448;2022-07-22T02:37:22;18.65;69.64
71291;DHT22;59073;51.994;4.448;2022-07-22T02:39:47;18.68;69.12
71291;DHT22;59073;51.994;4.448;2022-07-22T02:42:14;18.62;69.54
71291;DHT22;59073;51.994;4.448;2022-07-22T02:44:40;18.69;70.56
71291;DHT22;59073;51.994;4.448;2022-07-22T02:47:05;18.75;69.00
71291;DHT22;59073;51.994;4.448;2022-07-22T02:49:31;18.76;68.94
71291;DHT22;59073;51.994;4.448;2022-07-22T02:51:57;18.68;68.43
71291;DHT22;59073;51.994;4.448;2022-07-22T02:54:23;18.67;69.72
71291;DHT22;59073;51.994;4.448;2022-07-22T02:56:48;18.58;69.48
71291;DHT22;59073;51.994;4.448;2022-07-22T02:59:13;18.45;69.48
71291;DHT22;59073;51.994;4.448;2022-07-22T03:01:39;18.41;70.20
71291;DHT22;59073;51.994;4.448;2022-07-22T03:04:04;18.33;70.54
71291;DHT22;59073;51.994;4.448;2022-07-22T03:06:30;18.31;70.98
71291;DHT22;59073;51.994;4.448;2022-07-22T03:08:55;18.31;71.38
71291;DHT22;59073;51.994;4.448;2022-07-22T03:11:21;18.36;70.84
71291;DHT22;59073;51.994;4.448;2022-07-22T03:13:46;18.38;70.58
71291;DHT22;59073;51.994;4.448;2022-07-22T03:16:11;18.30;70.37
71291;DHT22;59073;51.994;4.448;2022-07-22T03:18:38;18.27;70.31
71291;DHT22;59073;51.994;4.448;2022-07-22T03:21:03;18.30;70.82
71291;DHT22;59073;51.994;4.448;2022-07-22T03:23:29;18.29;70.39
71291;DHT22;59073;51.994;4.448;2022-07-22T03:25:55;18.29;70.03
71291;DHT22;59073;51.994;4.448;2022-07-22T03:28:22;18.34;71.10
71291;DHT22;59073;51.994;4.448;2022-07-22T03:30:47;18.30;70.72
71291;DHT22;59073;51.994;4.448;2022-07-22T03:33:12;18.29;70.76
71291;DHT22;59073;51.994;4.448;2022-07-22T03:35:38;18.33;70.81
71291;DHT22;59073;51.994;4.448;2022-07-22T03:38:03;18.34;70.99
71291;DHT22;59073;51.994;4.448;2022-07-22T03:40:29;18.31;71.54
71291;DHT22;59073;51.994;4.448;2022-07-22T03:42:54;18.40;71.33
71291;DHT22;59073;51.994;4.448;2022-07-22T03:45:20;18.45;71.46
71291;DHT22;59073;51.994;4.448;2022-07-22T03:47:45;18.52;71.41
71291;DHT22;59073;51.994;4.448;2022-07-22T03:50:10;18.57;70.60
71291;DHT22;59073;51.994;4.448;2022-07-22T03:52:36;18.60;70.82
71291;DHT22;59073;51.994;4.448;2022-07-22T03:55:02;18.64;69.82
71291;DHT22;59073;51.994;4.448;2022-07-22T03:57:28;18.72;70.20
71291;DHT22;59073;51.994;4.448;2022-07-22T03:59:54;18.79;70.15
71291;DHT22;59073;51.994;4.448;2022-07-22T04:02:20;18.88;70.94
71291;DHT22;59073;51.994;4.448;2022-07-22T04:04:45;18.92;71.03
71291;DHT22;59073;51.994;4.448;2022-07-22T04:07:10;18.98;71.06
71291;DHT22;59073;51.994;4.448;2022-07-22T04:09:36;19.03;70.39
71291;DHT22;59073;51.994;4.448;2022-07-22T04:12:01;19.08;70.20
71291;DHT22;59073;51.994;4.448;2022-07-22T04:14:27;19.15;70.43
71291;DHT22;59073;51.994;4.448;2022-07-22T04:16:52;19.18;70.43
71291;DHT22;59073;51.994;4.448;2022-07-22T04:19:18;19.19;70.26
71291;DHT22;59073;51.994;4.448;2022-07-22T04:21:43;19.20;70.49
71291;DHT22;59073;51.994;4.448;2022-07-22T04:24:08;19.13;70.66
71291;DHT22;59073;51.994;4.448;2022-07-22T04:26:34;19.15;71.03
71291;DHT22;59073;51.994;4.448;2022-07-22T04:29:02;19.15;71.17
71291;DHT22;59073;51.994;4.448;2022-07-22T04:31:27;19.16;71.18
71291;DHT22;59073;51.994;4.448;2022-07-22T04:33:52;19.23;71.14
71291;DHT22;59073;51.994;4.448;2022-07-22T04:36:18;19.26;70.83
71291;DHT22;59073;51.994;4.448;2022-07-22T04:38:43;19.30;71.30
71291;DHT22;59073;51.994;4.448;2022-07-22T04:41:09;19.33;71.00
71291;DHT22;59073;51.994;4.448;2022-07-22T04:43:34;19.42;70.93
71291;DHT22;59073;51.994;4.448;2022-07-22T04:45:59;19.46;70.22
71291;DHT22;59073;51.994;4.448;2022-07-22T04:48:25;19.47;71.38
71291;DHT22;59073;51.994;4.448;2022-07-22T04:50:51;19.49;71.22
71291;DHT22;59073;51.994;4.448;2022-07-22T04:53:16;19.54;70.99
71291;DHT22;59073;51.994;4.448;2022-07-22T04:55:42;19.67;70.89
71291;DHT22;59073;51.994;4.448;2022-07-22T04:58:07;19.74;70.63
71291;DHT22;59073;51.994;4.448;2022-07-22T05:00:33;19.77;71.18
71291;DHT22;59073;51.994;4.448;2022-07-22T05:02:58;19.84;70.98
71291;DHT22;59073;51.994;4.448;2022-07-22T05:05:24;19.91;71.00
71291;DHT22;59073;51.994;4.448;2022-07-22T05:07:49;19.85;70.77
71291;DHT22;59073;51.994;4.448;2022-07-22T05:10:15;20.00;70.27
71291;DHT22;59073;51.994;4.448;2022-07-22T05:12:41;20.11;70.60
71291;DHT22;59073;51.994;4.448;2022-07-22T05:15:06;20.24;69.90
71291;DHT22;59073;51.994;4.448;2022-07-22T05:17:32;20.25;69.96
71291;DHT22;59073;51.994;4.448;2022-07-22T05:19:57;20.32;69.86
71291;DHT22;59073;51.994;4.448;2022-07-22T05:22:23;20.33;68.97
71291;DHT22;59073;51.994;4.448;2022-07-22T05:24:48;20.26;67.34
71291;DHT22;59073;51.994;4.448;2022-07-22T05:27:14;20.38;67.80
71291;DHT22;59073;51.994;4.448;2022-07-22T05:29:39;20.45;66.09
71291;DHT22;59073;51.994;4.448;2022-07-22T05:32:05;20.68;66.94
71291;DHT22;59073;51.994;4.448;2022-07-22T05:34:30;20.76;66.30
71291;DHT22;59073;51.994;4.448;2022-07-22T05:36:56;20.73;66.57
71291;DHT22;59073;51.994;4.448;2022-07-22T05:39:21;20.52;61.33
71291;DHT22;59073;51.994;4.448;2022-07-22T05:41:47;20.36;62.76
71291;DHT22;59073;51.994;4.448;2022-07-22T05:44:13;20.45;61.65
71291;DHT22;59073;51.994;4.448;2022-07-22T05:46:38;20.45;61.64
71291;DHT22;59073;51.994;4.448;2022-07-22T05:49:03;20.59;61.04
71291;DHT22;59073;51.994;4.448;2022-07-22T05:51:30;21.96;58.86
71291;DHT22;59073;51.994;4.448;2022-07-22T05:53:56;23.89;50.14
71291;DHT22;59073;51.994;4.448;2022-07-22T05:56:21;23.84;52.13
71291;DHT22;59073;51.994;4.448;2022-07-22T05:58:46;23.69;52.08
71291;DHT22;59073;51.994;4.448;2022-07-22T06:01:12;23.70;52.08
71291;DHT22;59073;51.994;4.448;2022-07-22T06:03:38;22.95;51.89
71291;DHT22;59073;51.994;4.448;2022-07-22T06:06:04;22.16;56.47
71291;DHT22;59073;51.994;4.448;2022-07-22T06:08:31;21.68;56.06
71291;DHT22;59073;51.994;4.448;2022-07-22T06:10:58;21.75;58.75
71291;DHT22;59073;51.994;4.448;2022-07-22T06:13:24;21.24;58.97
71291;DHT22;59073;51.994;4.448;2022-07-22T06:15:50;20.92;59.83
71291;DHT22;59073;51.994;4.448;2022-07-22T06:18:16;20.99;59.83
71291;DHT22;59073;51.994;4.448;2022-07-22T06:20:41;20.92;59.34
71291;DHT22;59073;51.994;4.448;2022-07-22T06:23:07;20.77;61.88
71291;DHT22;59073;51.994;4.448;2022-07-22T06:25:32;20.77;60.11
71291;DHT22;59073;51.994;4.448;2022-07-22T06:27:58;20.82;60.00
71291;DHT22;59073;51.994;4.448;2022-07-22T06:30:23;20.80;58.66
71291;DHT22;59073;51.994;4.448;2022-07-22T06:32:48;20.87;58.63
71291;DHT22;59073;51.994;4.448;2022-07-22T06:35:14;20.80;60.03
71291;DHT22;59073;51.994;4.448;2022-07-22T06:37:39;21.00;61.06
71291;DHT22;59073;51.994;4.448;2022-07-22T06:40:05;21.10;60.16
71291;DHT22;59073;51.994;4.448;2022-07-22T06:42:31;21.13;60.50
71291;DHT22;59073;51.994;4.448;2022-07-22T06:44:56;20.86;59.54
71291;DHT22;59073;51.994;4.448;2022-07-22T06:47:22;20.82;61.14
71291;DHT22;59073;51.994;4.448;2022-07-22T06:49:48;20.93;59.91
71291;DHT22;59073;51.994;4.448;2022-07-22T06:52:14;20.59;61.98
71291;DHT22;59073;51.994;4.448;2022-07-22T06:54:39;20.42;62.24
71291;DHT22;59073;51.994;4.448;2022-07-22T06:57:05;20.59;62.77
71291;DHT22;59073;51.994;4.448;2022-07-22T06:59:30;20.56;62.15
71291;DHT22;59073;51.994;4.448;2022-07-22T07:01:56;20.62;61.35
71291;DHT22;59073;51.994;4.448;2022-07-22T07:04:21;20.31;60.41
71291;DHT22;59073;51.994;4.448;2022-07-22T07:06:47;20.52;61.57
71291;DHT22;59073;51.994;4.448;2022-07-22T07:09:13;20.28;61.70
71291;DHT22;59073;51.994;4.448;2022-07-22T07:11:39;20.38;61.94
71291;DHT22;59073;51.994;4.448;2022-07-22T07:14:04;20.62;60.08
71291;DHT22;59073;51.994;4.448;2022-07-22T07:16:29;20.76;60.95
71291;DHT22;59073;51.994;4.448;2022-07-22T07:18:55;20.65;61.27
71291;DHT22;59073;51.994;4.448;2022-07-22T07:21:21;21.15;59.96
71291;DHT22;59073;51.994;4.448;2022-07-22T07:23:47;21.78;57.54
71291;DHT22;59073;51.994;4.448;2022-07-22T07:26:12;22.29;56.00
71291;DHT22;59073;51.994;4.448;2022-07-22T07:28:38;22.17;57.48
71291;DHT22;59073;51.994;4.448;2022-07-22T07:31:04;21.50;58.85
71291;DHT22;59073;51.994;4.448;2022-07-22T07:33:30;21.45;57.36
71291;DHT22;59073;51.994;4.448;2022-07-22T07:35:56;21.54;58.10
71291;DHT22;59073;51.994;4.448;2022-07-22T07:38:21;21.42;58.31
71291;DHT22;59073;51.994;4.448;2022-07-22T07:40:47;21.00;59.24
71291;DHT22;59073;51.994;4.448;2022-07-22T07:43:13;20.92;60.50
71291;DHT22;59073;51.994;4.448;2022-07-22T07:45:40;20.76;59.39
71291;DHT22;59073;51.994;4.448;2022-07-22T07:48:06;20.93;59.42
71291;DHT22;59073;51.994;4.448;2022-07-22T07:50:31;20.94;59.70
71291;DHT22;59073;51.994;4.448;2022-07-22T07:52:57;20.72;61.13
71291;DHT22;59073;51.994;4.448;2022-07-22T07:55:23;20.53;61.27
71291;DHT22;59073;51.994;4.448;2022-07-22T07:57:50;20.51;62.75
71291;DHT22;59073;51.994;4.448;2022-07-22T08:00:19;20.42;61.53
71291;DHT22;59073;51.994;4.448;2022-07-22T08:02:45;20.46;63.01
71291;DHT22;59073;51.994;4.448;2022-07-22T08:05:11;20.65;61.92
71291;DHT22;59073;51.994;4.448;2022-07-22T08:07:37;20.80;60.84
71291;DHT22;59073;51.994;4.448;2022-07-22T08:10:05;20.52;61.35
71291;DHT22;59073;51.994;4.448;2022-07-22T08:12:30;20.29;61.69
71291;DHT22;59073;51.994;4.448;2022-07-22T08:14:56;20.05;62.44
71291;DHT22;59073;51.994;4.448;2022-07-22T08:17:21;20.15;62.16
71291;DHT22;59073;51.994;4.448;2022-07-22T08:19:47;20.46;61.48
71291;DHT22;59073;51.994;4.448;2022-07-22T08:22:12;20.68;61.18
71291;DHT22;59073;51.994;4.448;2022-07-22T08:24:38;20.89;58.95
71291;DHT22;59073;51.994;4.448;2022-07-22T08:27:03;20.57;58.98
71291;DHT22;59073;51.994;4.448;2022-07-22T08:29:29;20.77;60.53
71291;DHT22;59073;51.994;4.448;2022-07-22T08:31:54;20.93;61.52
71291;DHT22;59073;51.994;4.448;2022-07-22T08:34:20;20.86;57.12
71291;DHT22;59073;51.994;4.448;2022-07-22T08:36:45;20.89;58.12
71291;DHT22;59073;51.994;4.448;2022-07-22T08:39:11;21.10;57.15
71291;DHT22;59073;51.994;4.448;2022-07-22T08:41:38;21.38;57.58
71291;DHT22;59073;51.994;4.448;2022-07-22T08:44:06;21.34;57.51
71291;DHT22;59073;51.994;4.448;2022-07-22T08:46:32;21.55;57.84
71291;DHT22;59073;51.994;4.448;2022-07-22T08:48:58;21.31;55.77
71291;DHT22;59073;51.994;4.448;2022-07-22T08:51:26;20.94;56.97
71291;DHT22;59073;51.994;4.448;2022-07-22T08:53:51;20.62;59.05
71291;DHT22;59073;51.994;4.448;2022-07-22T08:56:17;20.92;58.76
71291;DHT22;59073;51.994;4.448;2022-07-22T08:58:42;21.13;59.35
71291;DHT22;59073;51.994;4.448;2022-07-22T09:01:13;22.12;58.21
71291;DHT22;59073;51.994;4.448;2022-07-22T09:03:51;22.59;52.66
71291;DHT22;59073;51.994;4.448;2022-07-22T09:06:20;22.73;53.64
71291;DHT22;59073;51.994;4.448;2022-07-22T09:09:00;22.68;55.60
71291;DHT22;59073;51.994;4.448;2022-07-22T09:11:28;22.64;55.15
71291;DHT22;59073;51.994;4.448;2022-07-22T09:13:54;22.64;52.11
71291;DHT22;59073;51.994;4.448;2022-07-22T09:16:42;22.65;51.82
71291;DHT22;59073;51.994;4.448;2022-07-22T09:19:09;21.82;56.59
71291;DHT22;59073;51.994;4.448;2022-07-22T09:21:39;22.12;53.85
71291;DHT22;59073;51.994;4.448;2022-07-22T09:24:05;22.33;54.90
71291;DHT22;59073;51.994;4.448;2022-07-22T09:26:31;22.75;56.39
71291;DHT22;59073;51.994;4.448;2022-07-22T09:28:58;22.70;51.17
71291;DHT22;59073;51.994;4.448;2022-07-22T09:31:26;22.54;51.54
71291;DHT22;59073;51.994;4.448;2022-07-22T09:33:51;23.15;53.02
71291;DHT22;59073;51.994;4.448;2022-07-22T09:36:19;23.66;49.94
71291;DHT22;59073;51.994;4.448;2022-07-22T09:38:45;23.89;50.71
71291;DHT22;59073;51.994;4.448;2022-07-22T09:41:11;24.41;46.56
71291;DHT22;59073;51.994;4.448;2022-07-22T09:43:37;24.06;48.69
71291;DHT22;59073;51.994;4.448;2022-07-22T09:46:03;22.98;51.40
71291;DHT22;59073;51.994;4.448;2022-07-22T09:48:30;22.24;53.56
71291;DHT22;59073;51.994;4.448;2022-07-22T09:50:57;22.56;51.46
71291;DHT22;59073;51.994;4.448;2022-07-22T09:53:25;22.87;49.69
71291;DHT22;59073;51.994;4.448;2022-07-22T09:55:53;22.73;51.76
71291;DHT22;59073;51.994;4.448;2022-07-22T09:58:19;21.65;53.94
71291;DHT22;59073;51.994;4.448;2022-07-22T10:00:45;22.23;52.95
71291;DHT22;59073;51.994;4.448;2022-07-22T10:03:17;22.83;55.20
71291;DHT22;59073;51.994;4.448;2022-07-22T10:05:43;23.35;52.26
71291;DHT22;59073;51.994;4.448;2022-07-22T10:08:09;23.35;52.21
71291;DHT22;59073;51.994;4.448;2022-07-22T10:10:37;23.46;51.18
71291;DHT22;59073;51.994;4.448;2022-07-22T10:13:05;23.67;49.71
71291;DHT22;59073;51.994;4.448;2022-07-22T10:15:32;23.83;49.17
71291;DHT22;59073;51.994;4.448;2022-07-22T10:18:05;23.94;52.36
71291;DHT22;59073;51.994;4.448;2022-07-22T10:20:33;23.28;49.13
71291;DHT22;59073;51.994;4.448;2022-07-22T10:23:01;22.63;54.29
71291;DHT22;59073;51.994;4.448;2022-07-22T10:25:32;21.95;55.15
71291;DHT22;59073;51.994;4.448;2022-07-22T10:28:24;22.12;53.51
71291;DHT22;59073;51.994;4.448;2022-07-22T10:30:50;22.22;52.11
71291;DHT22;59073;51.994;4.448;2022-07-22T10:33:21;22.37;53.64
71291;DHT22;59073;51.994;4.448;2022-07-22T10:35:58;22.40;52.60
71291;DHT22;59073;51.994;4.448;2022-07-22T10:38:26;22.42;52.11
71291;DHT22;59073;51.994;4.448;2022-07-22T10:40:57;22.30;54.21
71291;DHT22;59073;51.994;4.448;2022-07-22T10:46:09;21.78;55.51
71291;DHT22;59073;51.994;4.448;2022-07-22T10:51:19;21.50;57.73
71291;DHT22;59073;51.994;4.448;2022-07-22T10:54:00;22.22;58.77
71291;DHT22;59073;51.994;4.448;2022-07-22T10:56:34;22.47;53.79
71291;DHT22;59073;51.994;4.448;2022-07-22T10:59:08;22.91;56.51
71291;DHT22;59073;51.994;4.448;2022-07-22T11:01:37;22.70;54.06
71291;DHT22;59073;51.994;4.448;2022-07-22T11:04:19;22.92;51.34
71291;DHT22;59073;51.994;4.448;2022-07-22T11:06:47;23.45;52.37
71291;DHT22;59073;51.994;4.448;2022-07-22T11:09:15;24.40;51.75
71291;DHT22;59073;51.994;4.448;2022-07-22T11:11:47;24.61;46.69
71291;DHT22;59073;51.994;4.448;2022-07-22T11:14:32;23.70;48.80
71291;DHT22;59073;51.994;4.448;2022-07-22T11:17:08;23.15;50.51
71291;DHT22;59073;51.994;4.448;2022-07-22T11:19:35;23.05;52.69
71291;DHT22;59073;51.994;4.448;2022-07-22T11:22:12;23.16;52.46
71291;DHT22;59073;51.994;4.448;2022-07-22T11:24:40;23.02;52.74
71291;DHT22;59073;51.994;4.448;2022-07-22T11:27:14;22.65;54.73
71291;DHT22;59073;51.994;4.448;2022-07-22T11:29:41;22.29;55.07
71291;DHT22;59073;51.994;4.448;2022-07-22T11:32:13;22.35;53.64
71291;DHT22;59073;51.994;4.448;2022-07-22T11:34:41;22.06;54.82
71291;DHT22;59073;51.994;4.448;2022-07-22T11:37:10;22.67;51.61
71291;DHT22;59073;51.994;4.448;2022-07-22T11:39:36;22.97;51.65
71291;DHT22;59073;51.994;4.448;2022-07-22T11:42:02;22.94;51.04
71291;DHT22;59073;51.994;4.448;2022-07-22T11:44:30;22.88;51.12
71291;DHT22;59073;51.994;4.448;2022-07-22T11:46:56;22.29;52.36
71291;DHT22;59073;51.994;4.448;2022-07-22T11:49:32;22.17;53.63
71291;DHT22;59073;51.994;4.448;2022-07-22T11:51:59;22.43;54.03
71291;DHT22;59073;51.994;4.448;2022-07-22T11:54:28;22.23;54.40
71291;DHT22;59073;51.994;4.448;2022-07-22T11:56:54;22.22;54.61
71291;DHT22;59073;51.994;4.448;2022-07-22T11:59:20;22.42;51.99
71291;DHT22;59073;51.994;4.448;2022-07-22T12:01:48;22.40;52.21
71291;DHT22;59073;51.994;4.448;2022-07-22T12:04:24;22.78;52.65
71291;DHT22;59073;51.994;4.448;2022-07-22T12:06:51;22.90;52.13
71291;DHT22;59073;51.994;4.448;2022-07-22T12:09:24;23.37;49.56
71291;DHT22;59073;51.994;4.448;2022-07-22T12:11:52;23.37;48.41
71291;DHT22;59073;51.994;4.448;2022-07-22T12:14:24;23.07;50.25
71291;DHT22;59073;51.994;4.448;2022-07-22T12:17:05;23.29;51.15
71291;DHT22;59073;51.994;4.448;2022-07-22T12:19:32;23.29;50.42
71291;DHT22;59073;51.994;4.448;2022-07-22T12:22:12;23.25;51.20
71291;DHT22;59073;51.994;4.448;2022-07-22T12:24:45;23.38;50.19
71291;DHT22;59073;51.994;4.448;2022-07-22T12:27:16;23.84;50.09
71291;DHT22;59073;51.994;4.448;2022-07-22T12:29:45;23.69;50.79
71291;DHT22;59073;51.994;4.448;2022-07-22T12:34:58;23.58;52.10
71291;DHT22;59073;51.994;4.448;2022-07-22T12:37:24;23.51;50.93
71291;DHT22;59073;51.994;4.448;2022-07-22T12:42:37;23.83;50.83
71291;DHT22;59073;51.994;4.448;2022-07-22T12:45:13;23.67;49.27
71291;DHT22;59073;51.994;4.448;2022-07-22T12:47:49;22.94;51.88
71291;DHT22;59073;51.994;4.448;2022-07-22T12:50:35;23.21;48.47
71291;DHT22;59073;51.994;4.448;2022-07-22T12:55:28;23.80;50.51
71291;DHT22;59073;51.994;4.448;2022-07-22T12:57:54;23.84;50.71
71291;DHT22;59073;51.994;4.448;2022-07-22T13:00:27;23.65;47.75
71291;DHT22;59073;51.994;4.448;2022-07-22T13:02:52;23.19;50.79
71291;DHT22;59073;51.994;4.448;2022-07-22T13:05:18;23.28;48.52
71291;DHT22;59073;51.994;4.448;2022-07-22T13:07:44;23.55;51.53
71291;DHT22;59073;51.994;4.448;2022-07-22T13:10:13;23.05;49.67
71291;DHT22;59073;51.994;4.448;2022-07-22T13:12:39;23.15;48.40
71291;DHT22;59073;51.994;4.448;2022-07-22T13:15:05;23.12;49.46
71291;DHT22;59073;51.994;4.448;2022-07-22T13:17:31;22.67;52.41
71291;DHT22;59073;51.994;4.448;2022-07-22T13:19:57;22.44;52.31
71291;DHT22;59073;51.994;4.448;2022-07-22T13:22:22;22.35;52.13
71291;DHT22;59073;51.994;4.448;2022-07-22T13:24:48;22.61;51.29
71291;DHT22;59073;51.994;4.448;2022-07-22T13:27:13;22.81;50.43
71291;DHT22;59073;51.994;4.448;2022-07-22T13:29:39;22.68;51.57
71291;DHT22;59073;51.994;4.448;2022-07-22T13:32:05;22.57;53.08
71291;DHT22;59073;51.994;4.448;2022-07-22T13:34:31;22.44;54.09
71291;DHT22;59073;51.994;4.448;2022-07-22T13:36:57;22.42;53.48
71291;DHT22;59073;51.994;4.448;2022-07-22T13:39:23;22.75;53.19
71291;DHT22;59073;51.994;4.448;2022-07-22T13:41:49;22.54;54.74
71291;DHT22;59073;51.994;4.448;2022-07-22T13:44:15;22.61;52.36
71291;DHT22;59073;51.994;4.448;2022-07-22T13:46:41;22.54;52.63
71291;DHT22;59073;51.994;4.448;2022-07-22T13:49:06;22.35;52.67
71291;DHT22;59073;51.994;4.448;2022-07-22T13:51:32;22.44;53.83
71291;DHT22;59073;51.994;4.448;2022-07-22T13:53:58;22.29;53.72
71291;DHT22;59073;51.994;4.448;2022-07-22T13:56:23;22.71;54.31
71291;DHT22;59073;51.994;4.448;2022-07-22T13:58:49;23.05;51.52
71291;DHT22;59073;51.994;4.448;2022-07-22T14:01:15;22.56;54.61
71291;DHT22;59073;51.994;4.448;2022-07-22T14:03:41;21.92;56.12
71291;DHT22;59073;51.994;4.448;2022-07-22T14:06:07;21.83;55.23
71291;DHT22;59073;51.994;4.448;2022-07-22T14:08:34;21.89;55.55
71291;DHT22;59073;51.994;4.448;2022-07-22T14:11:00;22.09;54.72
71291;DHT22;59073;51.994;4.448;2022-07-22T14:13:26;21.89;56.68
71291;DHT22;59073;51.994;4.448;2022-07-22T14:15:51;21.65;55.49
71291;DHT22;59073;51.994;4.448;2022-07-22T14:18:17;21.89;57.36
71291;DHT22;59073;51.994;4.448;2022-07-22T14:20:43;21.93;54.71
71291;DHT22;59073;51.994;4.448;2022-07-22T14:23:09;22.01;58.67
71291;DHT22;59073;51.994;4.448;2022-07-22T14:25:39;22.14;55.90
71291;DHT22;59073;51.994;4.448;2022-07-22T14:28:06;21.99;54.39
71291;DHT22;59073;51.994;4.448;2022-07-22T14:30:33;21.61;56.37
71291;DHT22;59073;51.994;4.448;2022-07-22T14:32:59;21.57;56.70
71291;DHT22;59073;51.994;4.448;2022-07-22T14:35:25;21.45;57.13
71291;DHT22;59073;51.994;4.448;2022-07-22T14:37:51;21.33;56.58
71291;DHT22;59073;51.994;4.448;2022-07-22T14:40:17;21.27;56.71
71291;DHT22;59073;51.994;4.448;2022-07-22T14:42:42;20.90;56.52
71291;DHT22;59073;51.994;4.448;2022-07-22T14:45:08;21.21;57.64
71291;DHT22;59073;51.994;4.448;2022-07-22T14:47:36;21.57;55.45
71291;DHT22;59073;51.994;4.448;2022-07-22T14:50:03;21.38;57.39
71291;DHT22;59073;51.994;4.448;2022-07-22T14:52:28;21.48;57.77
71291;DHT22;59073;51.994;4.448;2022-07-22T14:54:54;21.50;54.45
71291;DHT22;59073;51.994;4.448;2022-07-22T14:57:19;21.27;56.24
71291;DHT22;59073;51.994;4.448;2022-07-22T14:59:45;21.21;57.38
71291;DHT22;59073;51.994;4.448;2022-07-22T15:02:10;21.04;58.84
71291;DHT22;59073;51.994;4.448;2022-07-22T15:04:36;21.00;56.96
71291;DHT22;59073;51.994;4.448;2022-07-22T15:07:01;21.33;56.75
71291;DHT22;59073;51.994;4.448;2022-07-22T15:09:27;21.24;56.30
71291;DHT22;59073;51.994;4.448;2022-07-22T15:11:53;21.15;56.41
71291;DHT22;59073;51.994;4.448;2022-07-22T15:14:19;20.82;57.90
71291;DHT22;59073;51.994;4.448;2022-07-22T15:16:45;20.72;57.74
71291;DHT22;59073;51.994;4.448;2022-07-22T15:19:10;21.04;58.05
71291;DHT22;59073;51.994;4.448;2022-07-22T15:21:38;21.07;59.23
71291;DHT22;59073;51.994;4.448;2022-07-22T15:24:04;21.19;59.00
71291;DHT22;59073;51.994;4.448;2022-07-22T15:26:30;20.94;57.68
71291;DHT22;59073;51.994;4.448;2022-07-22T15:28:55;21.23;57.62
71291;DHT22;59073;51.994;4.448;2022-07-22T15:31:21;20.82;58.31
71291;DHT22;59073;51.994;4.448;2022-07-22T15:33:46;20.94;60.97
71291;DHT22;59073;51.994;4.448;2022-07-22T15:36:12;21.15;59.03
71291;DHT22;59073;51.994;4.448;2022-07-22T15:38:38;20.77;58.27
71291;DHT22;59073;51.994;4.448;2022-07-22T15:41:04;20.77;59.40